createdAt,value
2022-10-14T00:02:15.410Z,6.20
2022-10-14T00:04:43.701Z,1.10
2022-10-14T00:07:11.893Z,10.40
2022-10-14T00:09:44.413Z,18.10
2022-10-14T00:12:16.284Z,19.80
2022-10-14T00:14:44.206Z,11.10
2022-10-14T00:17:11.249Z,9.30
2022-10-14T00:19:45.542Z,1.00
2022-10-14T00:22:17.470Z,1.20
2022-10-14T00:25:26.368Z,9.00
2022-10-14T00:27:55.717Z,1.00
2022-10-14T00:30:23.219Z,12.90
2022-10-14T00:32:52.573Z,17.50
2022-10-14T00:35:20.265Z,10.80
2022-10-14T00:37:48.929Z,7.20
2022-10-14T00:40:16.497Z,8.20
2022-10-14T00:42:46.139Z,5.60
2022-10-14T00:45:17.052Z,10.40
2022-10-14T00:47:44.410Z,11.20
2022-10-14T00:53:18.876Z,15.70
2022-10-14T00:55:48.256Z,5.50
2022-10-14T00:58:17.009Z,1.00
2022-10-14T01:00:46.902Z,1.00
2022-10-14T01:03:21.683Z,8.00
2022-10-14T01:06:01.564Z,1.00
2022-10-14T01:08:35.200Z,5.70
2022-10-14T01:11:05.889Z,9.80
2022-10-14T01:13:35.717Z,4.80
2022-10-14T01:16:56.113Z,11.30
2022-10-14T01:19:17.992Z,5.20
2022-10-14T01:21:53.914Z,5.80
2022-10-14T01:24:20.810Z,5.90
2022-10-14T01:27:41.780Z,14.20
2022-10-14T01:30:11.083Z,8.70
2022-10-14T01:32:55.711Z,15.70
2022-10-14T01:35:28.985Z,7.80
2022-10-14T01:38:01.320Z,16.90
2022-10-14T01:40:35.723Z,2.20
2022-10-14T01:43:04.867Z,18.60
2022-10-14T01:45:34.145Z,21.40
2022-10-14T01:48:02.419Z,30.30
2022-10-14T01:50:31.149Z,32.80
2022-10-14T01:53:27.597Z,28.90
2022-10-14T01:55:56.763Z,24.40
2022-10-14T01:58:26.340Z,24.90
2022-10-14T02:00:53.371Z,2.40
2022-10-14T02:03:23.371Z,25.90
2022-10-14T02:06:05.900Z,27.00
2022-10-14T02:08:51.787Z,20.20
2022-10-14T02:11:19.497Z,18.90
2022-10-14T02:13:50.191Z,19.30
2022-10-14T02:16:23.837Z,15.30
2022-10-14T02:21:56.411Z,7.10
2022-10-14T02:28:08.923Z,11.50
2022-10-14T02:30:38.331Z,14.90
2022-10-14T02:33:05.673Z,13.00
2022-10-14T02:35:33.870Z,18.10
2022-10-14T02:38:04.600Z,9.70
2022-10-14T02:40:37.503Z,18.10
2022-10-14T02:43:04.872Z,22.10
2022-10-14T02:45:33.802Z,20.00
2022-10-14T02:48:00.770Z,14.60
2022-10-14T02:50:28.015Z,12.90
2022-10-14T02:52:55.227Z,16.90
2022-10-14T02:55:23.663Z,23.60
2022-10-14T03:00:59.006Z,29.40
2022-10-14T03:03:26.468Z,19.00
2022-10-14T03:05:54.769Z,30.60
2022-10-14T03:08:22.209Z,29.10
2022-10-14T03:10:49.099Z,23.20
2022-10-14T03:13:16.681Z,24.80
2022-10-14T03:15:50.612Z,5.20
2022-10-14T03:18:19.569Z,19.40
2022-10-14T03:20:49.062Z,22.10
2022-10-14T03:23:20.976Z,29.20
2022-10-14T03:25:50.608Z,43.60
2022-10-14T03:28:40.553Z,63.60
2022-10-14T03:31:21.541Z,88.00
2022-10-14T03:34:03.542Z,91.30
2022-10-14T03:36:33.253Z,92.10
2022-10-14T03:39:00.575Z,84.90
2022-10-14T03:41:49.882Z,89.00
2022-10-14T03:44:21.702Z,95.70
2022-10-14T03:47:12.365Z,99.90
2022-10-14T03:49:39.969Z,99.90
2022-10-14T03:52:14.148Z,99.90
2022-10-14T03:54:44.299Z,99.90
2022-10-14T03:57:16.199Z,99.90
2022-10-14T03:59:50.733Z,99.90
2022-10-14T04:02:18.943Z,99.90
2022-10-14T04:04:46.260Z,99.90
2022-10-14T04:07:13.929Z,99.90
2022-10-14T04:09:45.365Z,99.90
2022-10-14T04:12:13.964Z,99.90
2022-10-14T04:14:53.211Z,99.90
2022-10-14T04:17:21.081Z,99.90
2022-10-14T04:19:48.102Z,99.90
2022-10-14T04:22:18.391Z,98.40
2022-10-14T04:24:50.688Z,99.90
2022-10-14T04:27:18.359Z,99.90
2022-10-14T04:29:50.570Z,94.80
2022-10-14T04:32:25.225Z,92.50
2022-10-14T04:34:53.747Z,91.80
2022-10-14T04:37:21.689Z,98.60
2022-10-14T04:39:59.578Z,97.90
2022-10-14T04:42:27.514Z,94.20
2022-10-14T04:45:00.046Z,94.80
2022-10-14T04:47:48.759Z,96.60
2022-10-14T04:50:23.748Z,92.80
2022-10-14T04:53:13.285Z,97.60
2022-10-14T04:55:54.843Z,99.90
2022-10-14T04:58:22.156Z,96.90
2022-10-14T05:00:49.643Z,99.90
2022-10-14T05:03:30.385Z,99.90
2022-10-14T05:05:59.242Z,99.90
2022-10-14T05:08:26.348Z,99.90
2022-10-14T05:10:56.062Z,99.90
2022-10-14T05:13:47.541Z,99.90
2022-10-14T05:16:15.837Z,99.90
2022-10-14T05:18:43.688Z,99.90
2022-10-14T05:21:13.145Z,99.90
2022-10-14T05:23:58.208Z,99.90
2022-10-14T05:26:27.929Z,99.90
2022-10-14T05:28:57.206Z,99.90
2022-10-14T05:31:24.750Z,99.90
2022-10-14T05:34:02.535Z,99.90
2022-10-14T05:36:31.516Z,99.90
2022-10-14T05:38:59.483Z,99.90
2022-10-14T05:41:33.130Z,99.90
2022-10-14T05:44:00.187Z,99.90
2022-10-14T05:46:29.020Z,99.90
2022-10-14T05:49:08.852Z,99.90
2022-10-14T05:51:37.894Z,99.90
2022-10-14T05:54:12.899Z,99.90
2022-10-14T05:56:46.923Z,99.90
2022-10-14T05:59:15.441Z,99.90
2022-10-14T06:02:22.938Z,99.90
2022-10-14T06:05:01.200Z,99.90
2022-10-14T06:07:33.370Z,99.90
2022-10-14T06:10:02.744Z,99.90
2022-10-14T06:12:36.649Z,99.90
2022-10-14T06:15:16.566Z,99.90
2022-10-14T06:17:46.629Z,99.90
2022-10-14T06:20:16.612Z,99.90
2022-10-14T06:23:07.783Z,99.90
2022-10-14T06:25:41.630Z,99.90
2022-10-14T06:28:14.030Z,99.90
2022-10-14T06:30:54.803Z,99.90
2022-10-14T06:33:22.402Z,99.90
2022-10-14T06:36:17.451Z,99.90
2022-10-14T06:38:46.716Z,99.90
2022-10-14T06:42:13.039Z,91.80
2022-10-14T06:44:41.306Z,88.30
2022-10-14T06:47:12.691Z,58.40
2022-10-14T06:49:43.298Z,56.80
2022-10-14T06:52:12.402Z,31.10
2022-10-14T07:00:47.904Z,26.70
2022-10-14T07:03:28.702Z,15.60
2022-10-14T07:06:19.648Z,9.10
2022-10-14T07:08:54.160Z,13.60
2022-10-14T07:11:29.205Z,15.70
2022-10-14T07:14:28.984Z,20.60
2022-10-14T07:17:01.764Z,20.80
2022-10-14T07:19:40.226Z,18.70
2022-10-14T07:22:09.253Z,88.60
2022-10-14T07:24:36.616Z,98.20
2022-10-14T07:29:35.265Z,99.90
2022-10-14T07:32:04.529Z,99.90
2022-10-14T07:38:14.514Z,99.90
2022-10-14T07:44:02.707Z,99.90
2022-10-14T07:46:36.772Z,99.90
2022-10-14T07:49:08.547Z,99.90
2022-10-14T07:51:36.066Z,99.90
2022-10-14T07:54:03.920Z,99.70
2022-10-14T07:56:30.972Z,93.00
2022-10-14T07:59:01.987Z,75.70
2022-10-14T08:01:29.081Z,42.50
2022-10-14T08:03:56.354Z,32.70
2022-10-14T08:06:23.301Z,25.60
2022-10-14T08:08:50.274Z,26.30
2022-10-14T08:11:19.482Z,23.00
2022-10-14T08:13:47.030Z,15.40
2022-10-14T08:16:17.487Z,7.00
2022-10-14T08:18:45.158Z,1.00
2022-10-14T08:21:15.531Z,1.00
2022-10-14T08:23:42.799Z,1.00
2022-10-14T08:26:23.323Z,1.00
2022-10-14T08:28:51.086Z,1.00
2022-10-14T08:31:18.281Z,1.00
2022-10-14T08:33:45.265Z,1.00
2022-10-14T08:36:12.551Z,1.00
2022-10-14T08:38:39.426Z,1.00
2022-10-14T08:41:06.291Z,1.00
2022-10-14T08:43:34.918Z,1.00
2022-10-14T08:46:11.189Z,1.00
2022-10-14T08:48:38.711Z,1.00
2022-10-14T08:51:16.180Z,1.00
2022-10-14T08:54:06.193Z,1.00
2022-10-14T08:59:57.223Z,1.00
2022-10-14T09:05:40.379Z,1.00
2022-10-14T09:08:09.800Z,1.00
2022-10-14T09:10:40.947Z,1.00
2022-10-14T09:13:17.526Z,1.00
2022-10-14T09:15:58.234Z,1.00
2022-10-14T09:18:32.696Z,1.00
2022-10-14T09:21:00.321Z,1.00
2022-10-14T09:23:27.661Z,1.00
2022-10-14T09:25:57.471Z,1.00
2022-10-14T09:28:44.687Z,1.00
2022-10-14T09:31:13.037Z,1.00
2022-10-14T09:33:42.609Z,1.00
2022-10-14T09:36:12.942Z,1.00
2022-10-14T09:38:39.871Z,1.00
2022-10-14T09:41:09.700Z,1.00
2022-10-14T09:46:07.861Z,1.00
2022-10-14T09:48:38.811Z,1.00
2022-10-14T09:51:05.773Z,1.00
2022-10-14T09:53:34.328Z,1.00
2022-10-14T09:56:02.945Z,1.00
2022-10-14T09:58:32.104Z,1.00
2022-10-14T10:01:00.307Z,1.00
2022-10-14T10:03:32.741Z,1.00
2022-10-14T10:06:22.736Z,1.00
2022-10-14T10:08:58.237Z,1.00
2022-10-14T10:11:28.589Z,1.00
2022-10-14T10:13:57.037Z,1.00
2022-10-14T10:16:28.116Z,1.00
2022-10-14T10:19:03.360Z,1.00
2022-10-14T10:21:30.718Z,99.90
2022-10-14T10:23:59.437Z,99.90
2022-10-14T10:26:32.698Z,99.90
2022-10-14T10:29:04.459Z,99.90
2022-10-14T10:31:35.142Z,99.90
2022-10-14T10:34:16.774Z,99.90
2022-10-14T10:36:48.376Z,99.90
2022-10-14T10:39:27.172Z,99.90
2022-10-14T10:42:24.429Z,99.90
2022-10-14T10:45:04.018Z,99.90
2022-10-14T10:47:34.027Z,99.90
2022-10-14T10:50:10.349Z,99.90
2022-10-14T10:52:49.009Z,99.90
2022-10-14T10:55:18.643Z,99.90
2022-10-14T10:57:53.106Z,99.90
2022-10-14T11:02:55.855Z,99.90
2022-10-14T11:05:46.121Z,99.90
2022-10-14T11:08:57.954Z,99.90
2022-10-14T11:11:59.453Z,99.90
2022-10-14T11:14:32.731Z,99.90
2022-10-14T11:17:02.868Z,99.90
2022-10-14T11:19:48.761Z,99.90
2022-10-14T11:22:28.940Z,99.90
2022-10-14T11:25:19.071Z,99.90
2022-10-14T11:27:53.566Z,99.90
2022-10-14T11:30:25.205Z,99.90
2022-10-14T11:32:54.051Z,99.90
2022-10-14T11:35:24.971Z,99.90
2022-10-14T11:38:07.198Z,99.90
2022-10-14T11:40:40.179Z,99.90
2022-10-14T11:43:17.345Z,99.90
2022-10-14T11:45:56.683Z,99.90
2022-10-14T11:48:30.168Z,99.90
2022-10-14T11:51:05.170Z,99.90
2022-10-14T11:56:25.096Z,99.90
2022-10-14T11:58:54.075Z,99.90
2022-10-14T12:01:22.677Z,99.90
2022-10-14T12:03:59.935Z,99.90
2022-10-14T12:06:37.514Z,99.90
2022-10-14T12:09:11.527Z,99.90
2022-10-14T12:11:48.474Z,99.90
2022-10-14T12:14:35.594Z,99.90
2022-10-14T12:17:07.653Z,99.90
2022-10-14T12:19:35.778Z,99.90
2022-10-14T12:22:23.023Z,99.90
2022-10-14T12:24:54.731Z,99.90
2022-10-14T12:27:25.607Z,99.90
2022-10-14T12:29:53.219Z,99.90
2022-10-14T12:32:24.880Z,99.90
2022-10-14T12:35:01.506Z,99.90
2022-10-14T12:37:35.503Z,99.90
2022-10-14T12:43:30.182Z,99.90
2022-10-14T12:46:32.777Z,99.90
2022-10-14T12:49:05.313Z,99.90
2022-10-14T12:51:34.507Z,99.90
2022-10-14T12:54:06.459Z,99.90
2022-10-14T12:56:38.255Z,99.90
2022-10-14T12:59:08.224Z,99.90
2022-10-14T13:01:38.584Z,99.90
2022-10-14T13:04:46.210Z,99.90
2022-10-14T13:07:43.505Z,99.90
2022-10-14T13:10:33.874Z,99.90
2022-10-14T13:13:23.768Z,99.90
2022-10-14T13:16:55.855Z,99.90
2022-10-14T13:23:28.391Z,99.90
2022-10-14T13:26:21.619Z,99.90
2022-10-14T13:29:15.380Z,99.90
2022-10-14T13:32:02.465Z,99.90
2022-10-14T13:34:36.659Z,99.90
2022-10-14T13:37:22.237Z,99.90
2022-10-14T13:39:53.915Z,99.90
2022-10-14T13:42:29.233Z,99.90
2022-10-14T13:45:00.167Z,99.90
2022-10-14T13:47:32.650Z,99.90
2022-10-14T13:50:03.313Z,99.90
2022-10-14T13:52:33.577Z,99.90
2022-10-14T13:55:18.786Z,99.90
2022-10-14T13:58:12.635Z,99.90
2022-10-14T14:01:00.604Z,99.90
2022-10-14T14:03:44.276Z,99.90
2022-10-14T14:06:16.455Z,99.90
2022-10-14T14:08:52.381Z,99.90
2022-10-14T14:11:22.168Z,99.90
2022-10-14T14:14:13.662Z,99.90
2022-10-14T14:17:13.750Z,99.90
2022-10-14T14:19:49.384Z,99.90
2022-10-14T14:32:11.049Z,99.90
2022-10-14T14:50:59.909Z,99.90
2022-10-14T15:09:47.291Z,99.90
2022-10-14T15:30:47.535Z,99.90
2022-10-14T15:33:25.227Z,99.90
2022-10-14T15:36:03.917Z,99.90
2022-10-14T15:44:02.442Z,99.90
2022-10-14T15:49:58.453Z,99.90
2022-10-14T15:55:42.732Z,99.90
2022-10-14T15:58:58.362Z,99.90
2022-10-14T16:02:02.984Z,99.90
2022-10-14T16:18:07.747Z,1.00
2022-10-14T16:30:54.731Z,1.00
2022-10-14T16:33:22.272Z,1.00
2022-10-14T16:35:51.358Z,1.00
2022-10-14T16:38:19.025Z,1.00
2022-10-14T16:40:53.492Z,1.00
2022-10-14T16:43:20.568Z,1.00
2022-10-14T16:45:48.468Z,1.00
2022-10-14T16:48:18.403Z,1.00
2022-10-14T16:50:49.180Z,1.00
2022-10-14T16:53:34.650Z,1.00
2022-10-14T16:56:01.794Z,1.00
2022-10-14T16:58:29.527Z,1.00
2022-10-14T17:01:02.541Z,1.00
2022-10-14T17:04:05.105Z,1.00
2022-10-14T17:06:31.274Z,1.00
2022-10-14T17:08:59.363Z,1.00
2022-10-14T17:14:44.476Z,1.00
2022-10-14T17:20:50.662Z,1.00
2022-10-14T17:23:21.397Z,1.00
2022-10-14T17:25:51.384Z,1.00
2022-10-14T17:31:44.056Z,1.00
2022-10-14T17:34:12.330Z,1.00
2022-10-14T17:39:28.459Z,1.00
2022-10-14T17:41:56.579Z,1.00
2022-10-14T17:44:29.193Z,1.00
2022-10-14T17:47:08.642Z,1.00
2022-10-14T17:49:36.484Z,1.00
2022-10-14T17:52:04.944Z,5.40
2022-10-14T17:54:32.455Z,10.50
2022-10-14T17:57:00.099Z,3.10
2022-10-14T17:59:42.604Z,8.80
2022-10-14T18:02:23.591Z,10.00
2022-10-14T18:04:57.427Z,9.30
2022-10-14T18:07:35.900Z,15.50
2022-10-14T18:10:05.065Z,17.30
2022-10-14T18:12:50.517Z,20.50
2022-10-14T18:15:35.613Z,22.00
2022-10-14T18:18:05.233Z,22.80
2022-10-14T18:24:17.344Z,26.10
2022-10-14T18:26:50.109Z,30.30
2022-10-14T18:29:23.442Z,35.60
2022-10-14T18:46:38.282Z,35.70
2022-10-14T18:55:37.362Z,61.30
2022-10-14T18:58:04.254Z,34.00
2022-10-14T19:00:31.383Z,52.30
2022-10-14T19:02:58.231Z,49.90
2022-10-14T19:05:26.783Z,46.50
2022-10-14T19:07:56.741Z,56.50
2022-10-14T19:10:24.573Z,64.00
2022-10-14T19:12:52.636Z,70.20
2022-10-14T19:15:19.486Z,68.50
2022-10-14T19:17:52.211Z,59.20
2022-10-14T19:20:21.401Z,62.90
2022-10-14T19:22:50.888Z,63.80
2022-10-14T19:25:20.664Z,66.90
2022-10-14T19:27:47.413Z,60.90
2022-10-14T19:30:14.279Z,56.00
2022-10-14T19:32:41.219Z,52.10
2022-10-14T19:35:08.253Z,41.50
2022-10-14T19:37:35.188Z,53.30
2022-10-14T19:40:02.009Z,50.30
2022-10-14T19:42:28.919Z,64.00
2022-10-14T19:44:55.865Z,59.90
2022-10-14T19:47:23.106Z,57.90
2022-10-14T19:53:35.483Z,57.60
2022-10-14T23:34:08.016Z,81.90
2022-10-14T23:39:16.109Z,94.50
2022-10-14T23:41:47.390Z,85.90
2022-10-14T23:44:15.586Z,94.80
2022-10-14T23:46:56.201Z,95.30
2022-10-14T23:49:26.431Z,93.70
2022-10-14T23:52:00.434Z,98.10
2022-10-14T23:54:34.964Z,94.60
2022-10-14T23:57:22.846Z,76.10
2022-10-14T23:59:57.519Z,66.80
